sensor_id;sensor_type;location;lat;lon;timestamp;P1;durP1;ratioP1;P2;durP2;ratioP2
62931;SDS011;49037;41.898;25.004;2022-12-18T02:29:26;8.27;;;3.75;;
62931;SDS011;49037;41.898;25.004;2022-12-18T02:36:14;7.63;;;4.30;;
62931;SDS011;49037;41.898;25.004;2022-12-18T02:39:30;9.75;;;3.60;;
62931;SDS011;49037;41.898;25.004;2022-12-18T02:42:46;8.85;;;3.92;;
62931;SDS011;49037;41.898;25.004;2022-12-18T02:45:34;8.40;;;4.25;;
62931;SDS011;49037;41.898;25.004;2022-12-18T02:48:14;8.88;;;4.45;;
62931;SDS011;49037;41.898;25.004;2022-12-18T02:58:22;11.27;;;3.90;;
62931;SDS011;49037;41.898;25.004;2022-12-18T03:01:13;7.22;;;4.22;;
62931;SDS011;49037;41.898;25.004;2022-12-18T03:08:29;7.38;;;3.97;;
62931;SDS011;49037;41.898;25.004;2022-12-18T03:11:19;8.15;;;3.88;;
62931;SDS011;49037;41.898;25.004;2022-12-18T03:14:07;8.13;;;3.63;;
62931;SDS011;49037;41.898;25.004;2022-12-18T03:16:45;9.00;;;3.85;;
62931;SDS011;49037;41.898;25.004;2022-12-18T03:29:31;13.80;;;4.82;;
62931;SDS011;49037;41.898;25.004;2022-12-18T03:32:58;9.85;;;3.67;;
62931;SDS011;49037;41.898;25.004;2022-12-18T03:35:44;11.30;;;4.25;;
62931;SDS011;49037;41.898;25.004;2022-12-18T03:38:45;8.60;;;3.80;;
62931;SDS011;49037;41.898;25.004;2022-12-18T03:48:20;8.85;;;4.15;;
62931;SDS011;49037;41.898;25.004;2022-12-18T03:53:32;7.72;;;3.92;;
62931;SDS011;49037;41.898;25.004;2022-12-18T04:03:05;11.50;;;5.00;;
62931;SDS011;49037;41.898;25.004;2022-12-18T04:40:43;7.35;;;4.38;;
62931;SDS011;49037;41.898;25.004;2022-12-18T04:43:15;9.07;;;5.20;;
62931;SDS011;49037;41.898;25.004;2022-12-18T04:49:27;16.42;;;5.55;;
62931;SDS011;49037;41.898;25.004;2022-12-18T04:52:18;14.27;;;5.35;;
62931;SDS011;49037;41.898;25.004;2022-12-18T05:11:41;13.70;;;5.93;;
62931;SDS011;49037;41.898;25.004;2022-12-18T05:17:39;17.55;;;6.90;;
62931;SDS011;49037;41.898;25.004;2022-12-18T05:20:47;16.80;;;7.10;;
62931;SDS011;49037;41.898;25.004;2022-12-18T05:23:37;14.00;;;6.88;;
62931;SDS011;49037;41.898;25.004;2022-12-18T05:26:16;13.23;;;6.60;;
62931;SDS011;49037;41.898;25.004;2022-12-18T05:32:21;12.82;;;6.95;;
62931;SDS011;49037;41.898;25.004;2022-12-18T05:38:11;15.38;;;7.90;;
62931;SDS011;49037;41.898;25.004;2022-12-18T05:43:53;21.60;;;10.68;;
62931;SDS011;49037;41.898;25.004;2022-12-18T05:46:43;22.08;;;9.63;;
62931;SDS011;49037;41.898;25.004;2022-12-18T05:53:13;48.85;;;21.77;;
62931;SDS011;49037;41.898;25.004;2022-12-18T05:55:59;55.58;;;28.00;;
62931;SDS011;49037;41.898;25.004;2022-12-18T05:59:21;64.35;;;32.42;;
62931;SDS011;49037;41.898;25.004;2022-12-18T06:05:48;57.97;;;28.73;;
62931;SDS011;49037;41.898;25.004;2022-12-18T06:08:32;59.33;;;27.13;;
62931;SDS011;49037;41.898;25.004;2022-12-18T06:11:28;61.95;;;24.95;;
62931;SDS011;49037;41.898;25.004;2022-12-18T06:23:21;61.50;;;26.88;;
62931;SDS011;49037;41.898;25.004;2022-12-18T06:26:07;55.13;;;21.98;;
62931;SDS011;49037;41.898;25.004;2022-12-18T06:35:41;72.35;;;29.60;;
62931;SDS011;49037;41.898;25.004;2022-12-18T06:38:29;67.88;;;27.83;;
62931;SDS011;49037;41.898;25.004;2022-12-18T12:35:22;29.42;;;15.98;;
62931;SDS011;49037;41.898;25.004;2022-12-18T12:41:27;40.63;;;20.33;;
62931;SDS011;49037;41.898;25.004;2022-12-18T12:44:30;25.80;;;13.63;;
62931;SDS011;49037;41.898;25.004;2022-12-18T12:47:00;36.25;;;20.63;;
62931;SDS011;49037;41.898;25.004;2022-12-18T12:49:30;33.45;;;17.88;;
62931;SDS011;49037;41.898;25.004;2022-12-18T12:52:05;56.35;;;25.35;;
62931;SDS011;49037;41.898;25.004;2022-12-18T13:14:44;41.15;;;26.02;;
62931;SDS011;49037;41.898;25.004;2022-12-18T13:23:35;30.88;;;17.75;;
62931;SDS011;49037;41.898;25.004;2022-12-18T14:34:28;52.13;;;24.77;;
62931;SDS011;49037;41.898;25.004;2022-12-18T14:37:53;35.53;;;18.58;;
62931;SDS011;49037;41.898;25.004;2022-12-18T14:40:57;39.05;;;18.85;;
62931;SDS011;49037;41.898;25.004;2022-12-18T14:44:27;46.92;;;25.77;;
62931;SDS011;49037;41.898;25.004;2022-12-18T14:47:42;47.35;;;24.27;;
62931;SDS011;49037;41.898;25.004;2022-12-18T14:50:28;52.10;;;29.45;;
62931;SDS011;49037;41.898;25.004;2022-12-18T14:53:48;37.95;;;20.60;;
62931;SDS011;49037;41.898;25.004;2022-12-18T15:00:29;44.70;;;23.38;;
62931;SDS011;49037;41.898;25.004;2022-12-18T15:03:18;47.22;;;24.17;;
62931;SDS011;49037;41.898;25.004;2022-12-18T15:09:27;155.30;;;60.30;;
62931;SDS011;49037;41.898;25.004;2022-12-18T15:12:25;119.68;;;48.83;;
62931;SDS011;49037;41.898;25.004;2022-12-18T15:15:53;60.85;;;27.80;;
62931;SDS011;49037;41.898;25.004;2022-12-18T15:22:51;38.15;;;18.50;;
62931;SDS011;49037;41.898;25.004;2022-12-18T15:29:31;42.22;;;21.17;;
62931;SDS011;49037;41.898;25.004;2022-12-18T15:43:21;47.83;;;22.38;;
62931;SDS011;49037;41.898;25.004;2022-12-18T16:00:21;76.80;;;32.25;;
62931;SDS011;49037;41.898;25.004;2022-12-18T16:03:15;226.45;;;117.45;;
62931;SDS011;49037;41.898;25.004;2022-12-18T16:06:53;102.55;;;48.53;;
62931;SDS011;49037;41.898;25.004;2022-12-18T16:20:44;85.53;;;39.28;;
62931;SDS011;49037;41.898;25.004;2022-12-18T16:26:48;49.63;;;22.80;;
62931;SDS011;49037;41.898;25.004;2022-12-18T16:30:15;40.53;;;18.88;;
62931;SDS011;49037;41.898;25.004;2022-12-18T16:33:11;44.90;;;21.05;;
62931;SDS011;49037;41.898;25.004;2022-12-18T16:36:26;47.63;;;24.10;;
62931;SDS011;49037;41.898;25.004;2022-12-18T16:39:11;60.50;;;33.15;;
62931;SDS011;49037;41.898;25.004;2022-12-18T16:41:37;39.05;;;19.95;;
62931;SDS011;49037;41.898;25.004;2022-12-18T16:44:02;44.72;;;23.98;;
62931;SDS011;49037;41.898;25.004;2022-12-18T16:46:28;33.22;;;18.65;;
62931;SDS011;49037;41.898;25.004;2022-12-18T16:48:56;37.85;;;22.30;;
62931;SDS011;49037;41.898;25.004;2022-12-18T16:51:22;34.58;;;20.50;;
62931;SDS011;49037;41.898;25.004;2022-12-18T16:53:47;43.10;;;27.90;;
62931;SDS011;49037;41.898;25.004;2022-12-18T16:56:13;38.78;;;21.08;;
62931;SDS011;49037;41.898;25.004;2022-12-18T16:58:38;28.95;;;16.75;;
62931;SDS011;49037;41.898;25.004;2022-12-18T17:01:08;32.80;;;17.30;;
62931;SDS011;49037;41.898;25.004;2022-12-18T17:03:34;40.30;;;18.08;;
62931;SDS011;49037;41.898;25.004;2022-12-18T17:06:03;49.78;;;22.55;;
62931;SDS011;49037;41.898;25.004;2022-12-18T17:08:29;39.35;;;20.08;;
62931;SDS011;49037;41.898;25.004;2022-12-18T17:10:55;38.85;;;21.27;;
62931;SDS011;49037;41.898;25.004;2022-12-18T17:13:20;50.95;;;22.85;;
62931;SDS011;49037;41.898;25.004;2022-12-18T17:15:46;46.20;;;23.23;;
62931;SDS011;49037;41.898;25.004;2022-12-18T17:18:11;42.22;;;19.90;;
62931;SDS011;49037;41.898;25.004;2022-12-18T17:20:36;44.50;;;22.85;;
62931;SDS011;49037;41.898;25.004;2022-12-18T17:23:02;64.88;;;34.33;;
62931;SDS011;49037;41.898;25.004;2022-12-18T17:25:27;59.55;;;36.13;;
62931;SDS011;49037;41.898;25.004;2022-12-18T17:27:53;45.95;;;26.65;;
62931;SDS011;49037;41.898;25.004;2022-12-18T17:30:18;44.42;;;20.60;;
62931;SDS011;49037;41.898;25.004;2022-12-18T17:32:43;42.55;;;19.67;;
62931;SDS011;49037;41.898;25.004;2022-12-18T17:35:09;36.17;;;20.08;;
62931;SDS011;49037;41.898;25.004;2022-12-18T17:37:34;47.33;;;29.25;;
62931;SDS011;49037;41.898;25.004;2022-12-18T17:40:00;29.60;;;16.42;;
62931;SDS011;49037;41.898;25.004;2022-12-18T17:42:25;32.28;;;18.20;;
62931;SDS011;49037;41.898;25.004;2022-12-18T17:44:50;29.60;;;18.98;;
62931;SDS011;49037;41.898;25.004;2022-12-18T17:47:16;31.00;;;18.38;;
62931;SDS011;49037;41.898;25.004;2022-12-18T17:49:42;34.83;;;21.25;;
62931;SDS011;49037;41.898;25.004;2022-12-18T17:52:07;38.17;;;19.85;;
62931;SDS011;49037;41.898;25.004;2022-12-18T17:54:33;39.92;;;23.38;;
62931;SDS011;49037;41.898;25.004;2022-12-18T17:57:01;46.78;;;23.88;;
62931;SDS011;49037;41.898;25.004;2022-12-18T17:59:27;42.42;;;20.55;;
62931;SDS011;49037;41.898;25.004;2022-12-18T18:01:53;45.58;;;23.33;;
62931;SDS011;49037;41.898;25.004;2022-12-18T18:04:18;56.13;;;28.83;;
62931;SDS011;49037;41.898;25.004;2022-12-18T18:06:44;51.65;;;28.85;;
62931;SDS011;49037;41.898;25.004;2022-12-18T18:09:09;47.50;;;22.90;;
62931;SDS011;49037;41.898;25.004;2022-12-18T18:11:35;42.83;;;21.33;;
62931;SDS011;49037;41.898;25.004;2022-12-18T18:14:19;52.05;;;26.13;;
62931;SDS011;49037;41.898;25.004;2022-12-18T18:16:45;53.95;;;30.08;;
62931;SDS011;49037;41.898;25.004;2022-12-18T18:19:15;58.45;;;27.48;;
62931;SDS011;49037;41.898;25.004;2022-12-18T18:21:46;60.17;;;29.83;;
62931;SDS011;49037;41.898;25.004;2022-12-18T18:24:14;65.80;;;33.80;;
62931;SDS011;49037;41.898;25.004;2022-12-18T18:26:41;67.00;;;41.22;;
62931;SDS011;49037;41.898;25.004;2022-12-18T18:29:07;56.80;;;27.27;;
62931;SDS011;49037;41.898;25.004;2022-12-18T18:31:33;66.47;;;34.80;;
62931;SDS011;49037;41.898;25.004;2022-12-18T18:33:59;59.35;;;33.80;;
62931;SDS011;49037;41.898;25.004;2022-12-18T18:36:25;82.85;;;52.00;;
62931;SDS011;49037;41.898;25.004;2022-12-18T18:38:51;70.53;;;44.03;;
62931;SDS011;49037;41.898;25.004;2022-12-18T18:41:18;47.28;;;22.63;;
62931;SDS011;49037;41.898;25.004;2022-12-18T18:43:45;85.13;;;51.00;;
62931;SDS011;49037;41.898;25.004;2022-12-18T18:46:12;58.80;;;30.40;;
62931;SDS011;49037;41.898;25.004;2022-12-18T18:48:38;96.32;;;59.75;;
62931;SDS011;49037;41.898;25.004;2022-12-18T18:51:11;60.70;;;30.50;;
62931;SDS011;49037;41.898;25.004;2022-12-18T18:53:43;63.22;;;35.05;;
62931;SDS011;49037;41.898;25.004;2022-12-18T18:56:10;53.30;;;25.95;;
62931;SDS011;49037;41.898;25.004;2022-12-18T18:58:38;48.53;;;24.33;;
62931;SDS011;49037;41.898;25.004;2022-12-18T19:01:05;53.65;;;25.95;;
62931;SDS011;49037;41.898;25.004;2022-12-18T19:03:33;46.92;;;24.40;;
62931;SDS011;49037;41.898;25.004;2022-12-18T19:06:00;48.80;;;23.67;;
62931;SDS011;49037;41.898;25.004;2022-12-18T19:08:26;43.88;;;21.42;;
62931;SDS011;49037;41.898;25.004;2022-12-18T19:10:54;49.35;;;24.08;;
62931;SDS011;49037;41.898;25.004;2022-12-18T19:13:21;54.10;;;25.13;;
62931;SDS011;49037;41.898;25.004;2022-12-18T19:15:53;51.33;;;24.00;;
62931;SDS011;49037;41.898;25.004;2022-12-18T19:18:21;59.28;;;31.15;;
62931;SDS011;49037;41.898;25.004;2022-12-18T19:20:55;49.00;;;24.42;;
62931;SDS011;49037;41.898;25.004;2022-12-18T19:23:26;54.47;;;27.20;;
62931;SDS011;49037;41.898;25.004;2022-12-18T19:25:58;56.00;;;30.27;;
62931;SDS011;49037;41.898;25.004;2022-12-18T19:28:24;53.40;;;27.63;;
62931;SDS011;49037;41.898;25.004;2022-12-18T19:30:53;66.55;;;37.63;;
62931;SDS011;49037;41.898;25.004;2022-12-18T19:33:22;50.33;;;25.38;;
62931;SDS011;49037;41.898;25.004;2022-12-18T19:35:49;44.83;;;21.08;;
62931;SDS011;49037;41.898;25.004;2022-12-18T19:38:15;48.08;;;22.90;;
62931;SDS011;49037;41.898;25.004;2022-12-18T19:40:40;44.20;;;20.45;;
62931;SDS011;49037;41.898;25.004;2022-12-18T19:43:06;47.38;;;23.20;;
62931;SDS011;49037;41.898;25.004;2022-12-18T19:45:32;57.20;;;28.90;;
62931;SDS011;49037;41.898;25.004;2022-12-18T19:47:58;55.80;;;29.52;;
62931;SDS011;49037;41.898;25.004;2022-12-18T19:50:23;48.13;;;22.60;;
62931;SDS011;49037;41.898;25.004;2022-12-18T19:52:49;45.78;;;22.85;;
62931;SDS011;49037;41.898;25.004;2022-12-18T19:55:14;65.55;;;33.42;;
62931;SDS011;49037;41.898;25.004;2022-12-18T19:57:40;50.00;;;20.33;;
62931;SDS011;49037;41.898;25.004;2022-12-18T20:00:06;48.08;;;22.67;;
62931;SDS011;49037;41.898;25.004;2022-12-18T20:02:32;44.20;;;20.75;;
62931;SDS011;49037;41.898;25.004;2022-12-18T20:05:00;51.00;;;25.75;;
62931;SDS011;49037;41.898;25.004;2022-12-18T20:07:28;45.65;;;19.75;;
62931;SDS011;49037;41.898;25.004;2022-12-18T20:09:54;55.75;;;26.25;;
62931;SDS011;49037;41.898;25.004;2022-12-18T20:12:19;53.45;;;23.65;;
62931;SDS011;49037;41.898;25.004;2022-12-18T20:14:45;69.30;;;29.70;;
62931;SDS011;49037;41.898;25.004;2022-12-18T20:17:10;51.92;;;21.65;;
62931;SDS011;49037;41.898;25.004;2022-12-18T20:19:36;64.70;;;34.22;;
62931;SDS011;49037;41.898;25.004;2022-12-18T20:22:01;67.25;;;33.95;;
62931;SDS011;49037;41.898;25.004;2022-12-18T20:24:26;54.17;;;25.40;;
62931;SDS011;49037;41.898;25.004;2022-12-18T20:26:52;97.20;;;54.20;;
62931;SDS011;49037;41.898;25.004;2022-12-18T20:29:18;61.22;;;24.90;;
62931;SDS011;49037;41.898;25.004;2022-12-18T20:31:43;54.40;;;23.85;;
62931;SDS011;49037;41.898;25.004;2022-12-18T20:34:09;48.58;;;19.35;;
62931;SDS011;49037;41.898;25.004;2022-12-18T20:36:34;52.35;;;20.52;;
62931;SDS011;49037;41.898;25.004;2022-12-18T20:39:00;55.65;;;20.33;;
62931;SDS011;49037;41.898;25.004;2022-12-18T20:41:27;57.42;;;23.67;;
62931;SDS011;49037;41.898;25.004;2022-12-18T20:43:53;46.42;;;21.02;;
62931;SDS011;49037;41.898;25.004;2022-12-18T20:46:18;58.85;;;25.48;;
62931;SDS011;49037;41.898;25.004;2022-12-18T20:48:44;72.63;;;33.90;;
62931;SDS011;49037;41.898;25.004;2022-12-18T20:51:11;62.42;;;24.25;;
62931;SDS011;49037;41.898;25.004;2022-12-18T20:53:41;48.67;;;21.10;;
62931;SDS011;49037;41.898;25.004;2022-12-18T20:56:10;60.63;;;28.33;;
62931;SDS011;49037;41.898;25.004;2022-12-18T20:58:38;56.72;;;22.85;;
62931;SDS011;49037;41.898;25.004;2022-12-18T21:01:05;49.47;;;19.92;;
62931;SDS011;49037;41.898;25.004;2022-12-18T21:03:34;53.42;;;22.77;;
62931;SDS011;49037;41.898;25.004;2022-12-18T21:06:01;50.85;;;21.45;;
62931;SDS011;49037;41.898;25.004;2022-12-18T21:08:27;53.60;;;23.20;;
62931;SDS011;49037;41.898;25.004;2022-12-18T21:10:53;50.50;;;23.70;;
62931;SDS011;49037;41.898;25.004;2022-12-18T21:13:18;58.13;;;23.80;;
62931;SDS011;49037;41.898;25.004;2022-12-18T21:15:44;53.83;;;24.67;;
62931;SDS011;49037;41.898;25.004;2022-12-18T21:18:09;56.90;;;24.13;;
62931;SDS011;49037;41.898;25.004;2022-12-18T21:20:35;48.15;;;23.23;;
62931;SDS011;49037;41.898;25.004;2022-12-18T21:23:00;54.80;;;24.40;;
62931;SDS011;49037;41.898;25.004;2022-12-18T21:25:30;57.30;;;23.38;;
62931;SDS011;49037;41.898;25.004;2022-12-18T21:27:56;51.42;;;23.67;;
62931;SDS011;49037;41.898;25.004;2022-12-18T21:30:21;56.67;;;23.95;;
62931;SDS011;49037;41.898;25.004;2022-12-18T21:32:47;51.10;;;23.73;;
62931;SDS011;49037;41.898;25.004;2022-12-18T21:35:12;55.80;;;24.67;;
62931;SDS011;49037;41.898;25.004;2022-12-18T21:37:38;45.47;;;22.95;;
62931;SDS011;49037;41.898;25.004;2022-12-18T21:40:03;45.95;;;22.88;;
62931;SDS011;49037;41.898;25.004;2022-12-18T21:42:30;50.15;;;24.92;;
62931;SDS011;49037;41.898;25.004;2022-12-18T21:45:14;43.10;;;22.35;;
62931;SDS011;49037;41.898;25.004;2022-12-18T21:47:39;41.70;;;22.13;;
62931;SDS011;49037;41.898;25.004;2022-12-18T21:50:05;40.75;;;20.75;;
62931;SDS011;49037;41.898;25.004;2022-12-18T21:52:30;40.08;;;19.98;;
62931;SDS011;49037;41.898;25.004;2022-12-18T21:54:56;36.17;;;18.90;;
62931;SDS011;49037;41.898;25.004;2022-12-18T21:57:23;41.15;;;20.48;;
62931;SDS011;49037;41.898;25.004;2022-12-18T21:59:48;36.35;;;19.73;;
62931;SDS011;49037;41.898;25.004;2022-12-18T22:02:18;37.00;;;20.10;;
62931;SDS011;49037;41.898;25.004;2022-12-18T22:04:45;38.85;;;17.75;;
62931;SDS011;49037;41.898;25.004;2022-12-18T22:07:11;32.17;;;16.50;;
62931;SDS011;49037;41.898;25.004;2022-12-18T22:09:38;33.30;;;17.55;;
62931;SDS011;49037;41.898;25.004;2022-12-18T22:12:04;35.90;;;16.63;;
62931;SDS011;49037;41.898;25.004;2022-12-18T22:14:30;36.25;;;17.30;;
62931;SDS011;49037;41.898;25.004;2022-12-18T22:16:56;31.75;;;16.42;;
62931;SDS011;49037;41.898;25.004;2022-12-18T22:19:22;29.83;;;16.52;;
62931;SDS011;49037;41.898;25.004;2022-12-18T22:21:48;33.20;;;17.13;;
62931;SDS011;49037;41.898;25.004;2022-12-18T22:24:18;29.88;;;16.30;;
62931;SDS011;49037;41.898;25.004;2022-12-18T22:26:45;30.75;;;15.75;;
62931;SDS011;49037;41.898;25.004;2022-12-18T22:29:15;30.55;;;15.40;;
62931;SDS011;49037;41.898;25.004;2022-12-18T22:32:02;31.65;;;15.55;;
62931;SDS011;49037;41.898;25.004;2022-12-18T22:34:29;33.83;;;15.70;;
62931;SDS011;49037;41.898;25.004;2022-12-18T22:36:54;28.85;;;14.95;;
62931;SDS011;49037;41.898;25.004;2022-12-18T22:39:26;32.40;;;16.08;;
62931;SDS011;49037;41.898;25.004;2022-12-18T22:41:54;28.40;;;16.23;;
62931;SDS011;49037;41.898;25.004;2022-12-18T22:44:20;30.67;;;16.65;;
62931;SDS011;49037;41.898;25.004;2022-12-18T22:46:47;33.22;;;15.98;;
62931;SDS011;49037;41.898;25.004;2022-12-18T22:49:14;30.30;;;15.60;;
62931;SDS011;49037;41.898;25.004;2022-12-18T22:51:41;31.10;;;16.38;;
62931;SDS011;49037;41.898;25.004;2022-12-18T22:54:07;36.28;;;16.08;;
62931;SDS011;49037;41.898;25.004;2022-12-18T22:56:33;38.80;;;16.85;;
62931;SDS011;49037;41.898;25.004;2022-12-18T22:58:58;33.92;;;17.20;;
62931;SDS011;49037;41.898;25.004;2022-12-18T23:01:25;33.08;;;16.23;;
62931;SDS011;49037;41.898;25.004;2022-12-18T23:03:52;36.63;;;17.73;;
62931;SDS011;49037;41.898;25.004;2022-12-18T23:06:19;35.88;;;17.40;;
62931;SDS011;49037;41.898;25.004;2022-12-18T23:08:45;37.13;;;17.23;;
62931;SDS011;49037;41.898;25.004;2022-12-18T23:11:11;33.10;;;17.30;;
62931;SDS011;49037;41.898;25.004;2022-12-18T23:13:37;34.15;;;17.02;;
62931;SDS011;49037;41.898;25.004;2022-12-18T23:16:04;35.75;;;16.30;;
62931;SDS011;49037;41.898;25.004;2022-12-18T23:18:31;30.25;;;16.27;;
62931;SDS011;49037;41.898;25.004;2022-12-18T23:20:56;34.95;;;18.02;;
62931;SDS011;49037;41.898;25.004;2022-12-18T23:23:23;35.03;;;16.17;;
62931;SDS011;49037;41.898;25.004;2022-12-18T23:25:49;32.65;;;16.98;;
62931;SDS011;49037;41.898;25.004;2022-12-18T23:28:14;30.63;;;14.73;;
62931;SDS011;49037;41.898;25.004;2022-12-18T23:30:40;31.65;;;14.48;;
62931;SDS011;49037;41.898;25.004;2022-12-18T23:33:05;32.42;;;14.95;;
62931;SDS011;49037;41.898;25.004;2022-12-18T23:35:30;33.00;;;14.10;;
62931;SDS011;49037;41.898;25.004;2022-12-18T23:37:56;33.70;;;15.43;;
62931;SDS011;49037;41.898;25.004;2022-12-18T23:40:21;33.00;;;17.75;;
62931;SDS011;49037;41.898;25.004;2022-12-18T23:42:47;30.95;;;14.98;;
62931;SDS011;49037;41.898;25.004;2022-12-18T23:45:12;32.33;;;15.63;;
62931;SDS011;49037;41.898;25.004;2022-12-18T23:47:38;34.67;;;15.38;;
62931;SDS011;49037;41.898;25.004;2022-12-18T23:50:03;38.08;;;15.90;;
62931;SDS011;49037;41.898;25.004;2022-12-18T23:52:29;36.30;;;14.95;;
62931;SDS011;49037;41.898;25.004;2022-12-18T23:54:54;36.70;;;14.98;;
62931;SDS011;49037;41.898;25.004;2022-12-18T23:57:20;33.05;;;14.77;;
62931;SDS011;49037;41.898;25.004;2022-12-18T23:59:46;36.22;;;16.67;;
